createdAt,value
2023-02-16T00:00:24.154Z,3.45
2023-02-16T00:02:51.610Z,4.28
2023-02-16T00:05:29.022Z,3.97
2023-02-16T00:07:58.076Z,2.92
2023-02-16T00:10:31.360Z,3.28
2023-02-16T00:13:17.692Z,3.67
2023-02-16T00:15:45.163Z,2.90
2023-02-16T00:18:20.956Z,3.45
2023-02-16T00:20:49.453Z,1.95
2023-02-16T00:23:16.973Z,4.22
2023-02-16T00:25:44.564Z,2.72
2023-02-16T00:28:17.769Z,4.57
2023-02-16T00:30:46.627Z,1.92
2023-02-16T00:33:20.130Z,3.53
2023-02-16T00:35:48.148Z,2.60
2023-02-16T00:38:17.144Z,3.72
2023-02-16T00:40:44.688Z,2.33
2023-02-16T00:43:24.557Z,2.55
2023-02-16T00:45:52.600Z,2.70
2023-02-16T00:48:20.348Z,4.05
2023-02-16T00:50:48.011Z,3.40
2023-02-16T00:53:18.369Z,2.50
2023-02-16T00:55:45.816Z,5.30
2023-02-16T00:58:26.680Z,2.25
2023-02-16T01:00:58.208Z,2.43
2023-02-16T01:06:14.658Z,2.25
2023-02-16T01:09:00.571Z,4.03
2023-02-16T01:11:28.252Z,3.92
2023-02-16T01:13:56.882Z,1.83
2023-02-16T01:16:36.741Z,1.58
2023-02-16T01:19:04.644Z,2.33
2023-02-16T01:21:32.322Z,4.72
2023-02-16T01:24:02.094Z,2.67
2023-02-16T01:26:30.217Z,4.03
2023-02-16T01:28:57.629Z,2.20
2023-02-16T01:31:25.098Z,2.90
2023-02-16T01:33:52.622Z,2.00
2023-02-16T01:36:26.463Z,3.75
2023-02-16T01:38:54.023Z,5.07
2023-02-16T01:41:58.871Z,4.50
2023-02-16T01:44:38.866Z,4.30
2023-02-16T01:47:19.293Z,4.00
2023-02-16T01:49:46.694Z,2.88
2023-02-16T01:52:24.212Z,2.72
2023-02-16T01:55:03.542Z,2.08
2023-02-16T01:57:47.472Z,1.75
2023-02-16T02:00:15.108Z,2.47
2023-02-16T02:02:52.714Z,2.85
2023-02-16T02:05:36.956Z,4.97
2023-02-16T02:08:19.572Z,2.55
2023-02-16T02:11:10.090Z,2.15
2023-02-16T02:13:49.448Z,4.78
2023-02-16T02:16:20.271Z,2.08
2023-02-16T02:18:48.572Z,3.53
2023-02-16T02:21:55.664Z,2.13
2023-02-16T02:24:29.160Z,3.97
2023-02-16T02:27:04.375Z,3.20
2023-02-16T02:29:54.833Z,3.58
2023-02-16T02:32:37.424Z,3.20
2023-02-16T02:35:17.703Z,1.60
2023-02-16T02:37:48.211Z,1.65
2023-02-16T02:40:30.753Z,1.63
2023-02-16T02:43:21.072Z,1.17
2023-02-16T02:46:01.405Z,2.00
2023-02-16T02:48:34.354Z,2.55
2023-02-16T02:51:28.683Z,2.95
2023-02-16T02:54:22.900Z,3.50
2023-02-16T02:57:34.147Z,3.75
2023-02-16T03:00:27.176Z,2.60
2023-02-16T03:03:02.101Z,1.05
2023-02-16T03:05:33.652Z,3.15
2023-02-16T03:08:14.312Z,1.25
2023-02-16T03:11:10.799Z,3.63
2023-02-16T03:13:42.832Z,2.92
2023-02-16T03:16:20.099Z,2.72
2023-02-16T03:19:06.863Z,3.42
2023-02-16T03:21:54.315Z,1.35
2023-02-16T03:24:47.802Z,2.28
2023-02-16T03:27:42.931Z,2.38
2023-02-16T03:30:12.660Z,2.28
2023-02-16T03:32:40.258Z,2.05
2023-02-16T03:35:08.705Z,5.13
2023-02-16T03:37:36.329Z,2.13
2023-02-16T03:40:25.369Z,3.22
2023-02-16T03:42:52.784Z,2.80
2023-02-16T03:45:21.236Z,1.63
2023-02-16T03:47:48.776Z,3.22
2023-02-16T03:50:16.658Z,2.10
2023-02-16T03:52:44.057Z,3.28
2023-02-16T03:55:11.543Z,3.38
2023-02-16T03:57:39.785Z,3.28
2023-02-16T04:00:08.069Z,2.85
2023-02-16T04:02:44.141Z,2.90
2023-02-16T04:05:11.473Z,3.33
2023-02-16T04:07:38.797Z,2.25
2023-02-16T04:10:06.716Z,0.98
2023-02-16T04:12:36.974Z,2.95
2023-02-16T04:15:09.898Z,2.40
2023-02-16T04:17:37.494Z,2.63
2023-02-16T04:20:07.046Z,3.28
2023-02-16T04:22:34.538Z,1.77
2023-02-16T04:25:01.878Z,1.02
2023-02-16T04:27:29.271Z,3.22
2023-02-16T04:29:56.718Z,4.22
2023-02-16T04:32:24.100Z,2.65
2023-02-16T04:34:51.472Z,1.40
2023-02-16T04:37:18.973Z,3.58
2023-02-16T04:39:46.295Z,2.63
2023-02-16T04:42:13.692Z,2.58
2023-02-16T04:44:41.162Z,2.13
2023-02-16T04:47:08.580Z,3.53
2023-02-16T04:49:35.952Z,3.53
2023-02-16T04:52:04.060Z,2.17
2023-02-16T04:54:32.537Z,2.40
2023-02-16T04:57:00.238Z,3.30
2023-02-16T04:59:27.840Z,4.88
2023-02-16T05:01:55.230Z,4.00
2023-02-16T05:04:23.512Z,5.97
2023-02-16T05:06:50.888Z,5.78
2023-02-16T05:09:18.293Z,3.70
2023-02-16T05:12:04.151Z,3.10
2023-02-16T05:14:43.015Z,2.88
2023-02-16T05:17:15.376Z,3.90
2023-02-16T05:19:45.216Z,2.75
2023-02-16T05:22:13.431Z,2.08
2023-02-16T05:24:41.609Z,4.20
2023-02-16T05:27:12.591Z,3.38
2023-02-16T05:29:39.988Z,1.42
2023-02-16T05:32:07.436Z,2.15
2023-02-16T05:34:35.331Z,5.90
2023-02-16T05:37:02.956Z,4.18
2023-02-16T05:39:30.661Z,2.95
2023-02-16T05:41:58.505Z,3.67
2023-02-16T05:44:26.047Z,2.88
2023-02-16T05:46:53.396Z,2.88
2023-02-16T05:49:20.730Z,3.13
2023-02-16T05:51:48.286Z,2.92
2023-02-16T05:54:18.709Z,3.67
2023-02-16T05:56:48.713Z,3.33
2023-02-16T05:59:17.434Z,3.03
2023-02-16T06:01:50.549Z,3.53
2023-02-16T06:04:19.258Z,3.30
2023-02-16T06:06:46.754Z,3.65
2023-02-16T06:09:14.594Z,1.52
2023-02-16T06:11:42.296Z,3.85
2023-02-16T06:14:11.155Z,3.45
2023-02-16T06:16:40.632Z,2.00
2023-02-16T06:19:08.205Z,2.30
2023-02-16T06:21:37.564Z,3.58
2023-02-16T06:24:06.023Z,1.90
2023-02-16T06:26:33.844Z,3.03
2023-02-16T06:29:01.399Z,3.15
2023-02-16T06:31:28.935Z,2.55
2023-02-16T06:33:57.137Z,2.15
2023-02-16T06:36:25.251Z,3.53
2023-02-16T06:38:52.659Z,3.85
2023-02-16T06:41:32.172Z,2.85
2023-02-16T06:44:00.732Z,1.75
2023-02-16T06:46:28.482Z,4.07
2023-02-16T06:48:56.182Z,3.75
2023-02-16T06:51:24.089Z,3.45
2023-02-16T06:53:51.574Z,3.05
2023-02-16T06:56:19.095Z,3.70
2023-02-16T06:58:46.461Z,5.53
2023-02-16T07:01:14.048Z,4.78
2023-02-16T07:03:41.490Z,3.38
2023-02-16T07:06:08.919Z,2.08
2023-02-16T07:08:36.314Z,3.47
2023-02-16T07:11:04.500Z,3.13
2023-02-16T07:13:36.459Z,2.97
2023-02-16T07:16:05.707Z,2.70
2023-02-16T07:18:34.048Z,2.55
2023-02-16T07:21:02.004Z,2.70
2023-02-16T07:23:29.914Z,2.95
2023-02-16T07:25:57.291Z,1.83
2023-02-16T07:28:25.191Z,3.45
2023-02-16T07:30:52.611Z,3.10
2023-02-16T07:33:21.152Z,3.28
2023-02-16T07:35:50.320Z,3.90
2023-02-16T07:38:17.667Z,3.42
2023-02-16T07:40:45.035Z,3.95
2023-02-16T07:43:12.483Z,2.38
2023-02-16T07:45:39.863Z,2.70
2023-02-16T07:48:07.470Z,2.30
2023-02-16T07:50:36.596Z,3.80
2023-02-16T07:53:04.006Z,4.75
2023-02-16T07:55:31.424Z,4.38
2023-02-16T07:57:58.928Z,2.00
2023-02-16T08:00:26.963Z,1.65
2023-02-16T08:02:54.509Z,3.38
2023-02-16T08:05:21.990Z,2.58
2023-02-16T08:07:49.578Z,3.35
2023-02-16T08:10:17.212Z,3.05
2023-02-16T08:12:44.860Z,2.13
2023-02-16T08:15:12.612Z,1.38
2023-02-16T08:17:40.102Z,1.42
2023-02-16T08:20:09.072Z,1.95
2023-02-16T08:22:37.167Z,1.95
2023-02-16T08:25:06.980Z,1.75
2023-02-16T08:27:35.793Z,1.73
2023-02-16T08:30:03.981Z,2.75
2023-02-16T08:32:31.629Z,2.20
2023-02-16T08:34:59.009Z,2.42
2023-02-16T08:37:26.356Z,3.65
2023-02-16T08:39:53.928Z,2.28
2023-02-16T08:42:21.345Z,4.07
2023-02-16T08:44:48.820Z,3.90
2023-02-16T08:47:18.463Z,2.30
2023-02-16T08:49:46.189Z,2.92
2023-02-16T08:52:13.996Z,2.80
2023-02-16T08:54:41.483Z,2.53
2023-02-16T08:57:09.447Z,3.88
2023-02-16T08:59:36.856Z,3.00
2023-02-16T09:02:04.378Z,4.28
2023-02-16T09:04:32.197Z,2.20
2023-02-16T09:06:59.947Z,3.70
2023-02-16T09:09:28.577Z,4.78
2023-02-16T09:11:57.477Z,5.95
2023-02-16T09:14:24.899Z,5.22
2023-02-16T09:16:52.990Z,4.78
2023-02-16T09:19:21.403Z,4.55
2023-02-16T09:21:51.004Z,3.75
2023-02-16T09:24:19.229Z,3.40
2023-02-16T09:26:46.699Z,5.90
2023-02-16T09:29:14.241Z,3.50
2023-02-16T09:31:44.294Z,7.40
2023-02-16T09:34:18.419Z,4.90
2023-02-16T09:36:47.212Z,7.75
2023-02-16T09:39:16.991Z,6.53
2023-02-16T09:41:56.058Z,7.85
2023-02-16T09:44:41.201Z,6.13
2023-02-16T09:47:22.511Z,6.80
2023-02-16T09:49:50.171Z,6.97
2023-02-16T09:52:40.313Z,6.15
2023-02-16T09:55:13.560Z,4.97
2023-02-16T09:58:10.499Z,8.20
2023-02-16T10:00:43.394Z,5.85
2023-02-16T10:03:21.230Z,5.75
2023-02-16T10:06:14.160Z,5.32
2023-02-16T10:08:45.814Z,5.38
2023-02-16T10:11:38.764Z,5.55
2023-02-16T10:14:30.933Z,6.45
2023-02-16T10:19:54.660Z,4.78
2023-02-16T10:22:55.165Z,7.97
2023-02-16T10:25:29.603Z,5.28
2023-02-16T10:28:18.918Z,6.38
2023-02-16T10:31:05.956Z,4.05
2023-02-16T10:33:42.660Z,4.75
2023-02-16T10:36:41.894Z,5.82
2023-02-16T10:39:38.310Z,4.50
2023-02-16T10:42:37.644Z,6.30
2023-02-16T10:45:24.119Z,5.07
2023-02-16T10:47:52.211Z,6.30
2023-02-16T10:50:25.387Z,4.88
2023-02-16T10:52:58.420Z,4.25
2023-02-16T10:55:26.368Z,7.03
2023-02-16T10:57:57.434Z,6.93
2023-02-16T11:01:04.091Z,7.43
2023-02-16T11:03:35.899Z,5.75
2023-02-16T11:09:04.383Z,6.22
2023-02-16T11:11:40.882Z,6.95
2023-02-16T11:14:23.448Z,3.22
2023-02-16T11:17:12.743Z,8.23
2023-02-16T11:19:49.240Z,6.10
2023-02-16T11:22:45.822Z,8.38
2023-02-16T11:25:23.613Z,7.90
2023-02-16T11:27:59.989Z,3.85
2023-02-16T11:30:36.512Z,5.88
2023-02-16T11:33:22.983Z,5.28
2023-02-16T11:35:50.526Z,5.53
2023-02-16T11:38:36.080Z,7.05
2023-02-16T11:41:06.705Z,9.65
2023-02-16T11:43:38.916Z,7.23
2023-02-16T11:46:18.454Z,5.30
2023-02-16T11:48:46.401Z,5.03
2023-02-16T11:51:15.618Z,9.93
2023-02-16T11:53:45.924Z,5.55
2023-02-16T11:56:29.507Z,7.13
2023-02-16T11:59:20.955Z,6.32
2023-02-16T12:02:12.902Z,8.73
2023-02-16T12:07:27.735Z,7.00
2023-02-16T12:10:12.785Z,5.05
2023-02-16T12:13:11.274Z,3.38
2023-02-16T12:15:52.141Z,6.70
2023-02-16T12:18:34.264Z,8.35
2023-02-16T12:21:37.160Z,6.28
2023-02-16T12:24:17.977Z,7.57
2023-02-16T12:27:25.581Z,3.22
2023-02-16T12:30:14.705Z,6.32
2023-02-16T12:32:54.507Z,6.82
2023-02-16T12:35:58.285Z,9.43
2023-02-16T12:38:28.735Z,6.00
2023-02-16T12:41:28.408Z,6.05
2023-02-16T12:44:03.928Z,5.53
2023-02-16T12:46:44.777Z,7.10
2023-02-16T12:49:46.130Z,8.30
2023-02-16T12:52:37.705Z,6.18
2023-02-16T12:55:19.845Z,4.65
2023-02-16T12:57:59.428Z,5.65
2023-02-16T13:00:48.629Z,3.75
2023-02-16T13:03:44.829Z,6.75
2023-02-16T13:06:29.936Z,7.13
2023-02-16T13:09:25.104Z,7.30
2023-02-16T13:12:02.576Z,7.88
2023-02-16T13:14:34.296Z,4.95
2023-02-16T13:19:31.587Z,5.72
2023-02-16T13:23:03.710Z,5.80
2023-02-16T13:25:45.073Z,6.78
2023-02-16T13:28:31.489Z,8.63
2023-02-16T13:31:18.046Z,6.30
2023-02-16T13:34:04.123Z,7.40
2023-02-16T13:36:43.717Z,8.35
2023-02-16T13:39:27.378Z,8.00
2023-02-16T13:42:03.590Z,7.45
2023-02-16T13:44:47.626Z,8.05
2023-02-16T13:47:24.147Z,6.03
2023-02-16T13:49:58.713Z,8.82
2023-02-16T13:52:39.489Z,8.77
2023-02-16T13:55:22.288Z,9.10
2023-02-16T13:57:51.752Z,8.18
2023-02-16T14:00:42.260Z,6.22
2023-02-16T14:03:38.075Z,7.28
2023-02-16T14:06:27.920Z,8.27
2023-02-16T14:09:11.061Z,6.15
2023-02-16T14:11:53.768Z,9.25
2023-02-16T14:14:31.405Z,7.78
2023-02-16T14:17:23.300Z,5.90
2023-02-16T14:19:53.493Z,8.88
2023-02-16T14:22:24.644Z,10.13
2023-02-16T14:24:58.568Z,6.88
2023-02-16T14:27:47.868Z,5.95
2023-02-16T14:30:43.058Z,8.80
2023-02-16T14:33:11.962Z,7.25
2023-02-16T14:35:42.270Z,8.20
2023-02-16T14:38:41.729Z,9.93
2023-02-16T14:41:25.889Z,6.78
2023-02-16T14:44:17.044Z,7.40
2023-02-16T14:46:56.098Z,9.88
2023-02-16T14:49:38.242Z,8.43
2023-02-16T14:52:37.291Z,7.55
2023-02-16T14:55:40.419Z,5.70
2023-02-16T14:58:29.258Z,6.28
2023-02-16T15:01:12.907Z,9.25
2023-02-16T15:03:48.273Z,7.80
2023-02-16T15:06:25.693Z,7.25
2023-02-16T15:08:59.236Z,5.95
2023-02-16T15:12:01.445Z,7.80
2023-02-16T15:14:37.821Z,7.75
2023-02-16T15:17:08.187Z,8.05
2023-02-16T15:19:36.528Z,9.70
2023-02-16T15:22:27.048Z,7.75
2023-02-16T15:25:27.831Z,7.00
2023-02-16T15:28:19.188Z,5.63
2023-02-16T15:30:49.802Z,9.68
2023-02-16T15:33:23.074Z,7.78
2023-02-16T15:35:59.873Z,8.68
2023-02-16T15:38:34.384Z,5.60
2023-02-16T15:41:33.299Z,6.25
2023-02-16T15:44:02.836Z,8.93
2023-02-16T15:46:33.382Z,7.68
2023-02-16T15:49:29.853Z,10.32
2023-02-16T15:51:59.291Z,9.77
2023-02-16T15:54:37.135Z,10.90
2023-02-16T15:57:21.254Z,8.88
2023-02-16T15:59:58.441Z,12.07
2023-02-16T16:02:47.564Z,7.55
2023-02-16T16:05:27.232Z,8.52
2023-02-16T16:07:56.732Z,12.43
2023-02-16T16:10:36.584Z,9.52
2023-02-16T16:13:06.745Z,10.93
2023-02-16T16:15:40.817Z,10.20
2023-02-16T16:18:45.360Z,9.32
2023-02-16T16:21:14.761Z,8.45
2023-02-16T16:23:53.310Z,10.25
2023-02-16T16:26:22.479Z,7.57
2023-02-16T16:28:50.630Z,7.78
2023-02-16T16:31:20.840Z,10.52
2023-02-16T16:34:00.144Z,9.05
2023-02-16T16:36:36.914Z,11.73
2023-02-16T16:39:16.184Z,11.13
2023-02-16T16:42:22.217Z,8.80
2023-02-16T16:44:54.387Z,7.07
2023-02-16T16:47:23.352Z,8.75
2023-02-16T16:50:01.942Z,9.73
2023-02-16T16:52:42.275Z,8.30
2023-02-16T16:55:21.657Z,7.55
2023-02-16T16:57:54.686Z,12.73
2023-02-16T17:00:25.155Z,10.45
2023-02-16T17:02:52.597Z,9.77
2023-02-16T17:05:20.638Z,10.43
2023-02-16T17:07:50.152Z,8.63
2023-02-16T17:10:19.812Z,10.23
2023-02-16T17:12:51.643Z,12.23
2023-02-16T17:15:28.692Z,6.97
2023-02-16T17:17:56.570Z,12.05
2023-02-16T17:20:24.715Z,10.13
2023-02-16T17:22:52.084Z,13.02
2023-02-16T17:25:19.659Z,12.70
2023-02-16T17:27:47.029Z,10.68
2023-02-16T17:30:15.196Z,10.38
2023-02-16T17:32:42.779Z,8.52
2023-02-16T17:35:10.238Z,11.48
2023-02-16T17:37:37.772Z,8.23
2023-02-16T17:40:11.937Z,13.75
2023-02-16T17:42:39.473Z,10.23
2023-02-16T17:45:07.149Z,10.73
2023-02-16T17:47:34.753Z,16.30
2023-02-16T17:50:02.444Z,9.88
2023-02-16T17:52:29.813Z,8.75
2023-02-16T17:54:57.198Z,13.77
2023-02-16T17:57:24.580Z,11.18
2023-02-16T17:59:52.226Z,12.85
2023-02-16T18:02:19.673Z,8.93
2023-02-16T18:04:47.061Z,8.88
2023-02-16T18:07:15.369Z,11.07
2023-02-16T18:09:42.861Z,15.23
2023-02-16T18:12:10.389Z,11.05
2023-02-16T18:14:37.815Z,13.68
2023-02-16T18:17:06.871Z,10.88
2023-02-16T18:19:34.486Z,9.90
2023-02-16T18:22:02.050Z,9.98
2023-02-16T18:24:29.400Z,12.27
2023-02-16T18:26:56.801Z,10.98
2023-02-16T18:29:24.420Z,13.70
2023-02-16T18:31:51.846Z,11.52
2023-02-16T18:34:19.378Z,13.30
2023-02-16T18:36:46.777Z,12.90
2023-02-16T18:39:14.385Z,9.00
2023-02-16T18:41:41.740Z,10.63
2023-02-16T18:44:09.022Z,8.68
2023-02-16T18:46:36.426Z,13.52
2023-02-16T18:49:03.757Z,6.88
2023-02-16T18:51:32.046Z,12.45
2023-02-16T18:53:59.644Z,12.65
2023-02-16T18:56:27.738Z,13.48
2023-02-16T18:58:55.052Z,9.50
2023-02-16T19:01:27.479Z,9.75
2023-02-16T19:03:55.104Z,10.68
2023-02-16T19:06:23.291Z,11.32
2023-02-16T19:08:51.440Z,9.07
2023-02-16T19:11:20.002Z,13.15
2023-02-16T19:13:47.983Z,13.23
2023-02-16T19:16:16.326Z,12.02
2023-02-16T19:18:43.767Z,10.55
2023-02-16T19:21:13.957Z,8.90
2023-02-16T19:23:41.316Z,11.60
2023-02-16T19:26:12.835Z,10.57
2023-02-16T19:28:40.552Z,11.52
2023-02-16T19:31:15.399Z,10.60
2023-02-16T19:33:42.793Z,11.73
2023-02-16T19:36:10.996Z,9.07
2023-02-16T19:38:39.586Z,9.48
2023-02-16T19:41:20.030Z,10.15
2023-02-16T19:43:47.869Z,11.18
2023-02-16T19:46:15.734Z,11.10
2023-02-16T19:48:43.496Z,10.30
2023-02-16T19:51:11.067Z,8.23
2023-02-16T19:53:39.322Z,10.68
2023-02-16T19:56:09.406Z,11.93
2023-02-16T19:58:36.843Z,11.82
2023-02-16T20:01:12.382Z,8.52
2023-02-16T20:03:40.334Z,9.93
2023-02-16T20:06:18.430Z,10.38
2023-02-16T20:08:46.862Z,12.45
2023-02-16T20:11:15.747Z,11.35
2023-02-16T20:13:43.378Z,10.27
2023-02-16T20:16:12.379Z,14.35
2023-02-16T20:18:40.336Z,11.70
2023-02-16T20:21:11.654Z,10.55
2023-02-16T20:23:39.925Z,7.45
2023-02-16T20:26:11.400Z,10.27
2023-02-16T20:28:39.634Z,8.40
2023-02-16T20:31:22.982Z,7.30
2023-02-16T20:33:50.906Z,8.52
2023-02-16T20:36:18.848Z,13.20
2023-02-16T20:38:46.361Z,10.88
2023-02-16T20:41:18.979Z,11.07
2023-02-16T20:43:46.885Z,9.77
2023-02-16T20:46:15.822Z,5.70
2023-02-16T20:48:44.279Z,7.72
2023-02-16T20:51:14.034Z,4.80
2023-02-16T20:53:41.861Z,7.57
2023-02-16T20:56:15.621Z,6.50
2023-02-16T20:58:44.860Z,7.55
2023-02-16T21:01:16.943Z,9.50
2023-02-16T21:03:44.304Z,11.15
2023-02-16T21:06:11.804Z,9.10
2023-02-16T21:08:39.344Z,8.55
2023-02-16T21:11:06.802Z,6.50
2023-02-16T21:13:34.325Z,10.70
2023-02-16T21:16:01.764Z,5.03
2023-02-16T21:18:29.356Z,8.38
2023-02-16T21:20:58.881Z,8.25
2023-02-16T21:23:26.443Z,9.73
2023-02-16T21:26:01.792Z,8.63
2023-02-16T21:28:29.473Z,10.80
2023-02-16T21:31:02.410Z,9.02
2023-02-16T21:33:31.080Z,9.23
2023-02-16T21:36:13.530Z,9.43
2023-02-16T21:38:42.091Z,6.47
2023-02-16T21:41:25.108Z,6.82
2023-02-16T21:44:09.229Z,10.82
2023-02-16T21:46:37.745Z,7.05
2023-02-16T21:49:07.433Z,7.38
2023-02-16T21:51:37.156Z,8.32
2023-02-16T21:54:14.437Z,8.18
2023-02-16T21:56:51.076Z,8.15
2023-02-16T21:59:20.007Z,8.45
2023-02-16T22:01:53.117Z,11.07
2023-02-16T22:04:22.680Z,8.95
2023-02-16T22:06:51.262Z,9.05
2023-02-16T22:09:23.200Z,8.45
2023-02-16T22:11:51.055Z,8.85
2023-02-16T22:14:18.596Z,13.32
2023-02-16T22:16:47.572Z,9.45
2023-02-16T22:19:17.097Z,11.68
2023-02-16T22:21:46.070Z,12.13
2023-02-16T22:24:15.587Z,10.70
2023-02-16T22:26:43.375Z,10.90
2023-02-16T22:29:12.072Z,8.65
2023-02-16T22:31:44.422Z,10.90
2023-02-16T22:34:14.583Z,11.07
2023-02-16T22:36:42.010Z,10.05
2023-02-16T22:39:13.151Z,7.00
2023-02-16T22:41:41.289Z,9.25
2023-02-16T22:44:10.697Z,7.65
2023-02-16T22:46:38.148Z,8.15
2023-02-16T22:49:05.496Z,8.07
2023-02-16T22:51:32.976Z,8.27
2023-02-16T22:54:01.536Z,10.15
2023-02-16T22:56:30.410Z,6.40
2023-02-16T22:58:59.360Z,7.45
2023-02-16T23:01:29.287Z,11.20
2023-02-16T23:03:58.392Z,8.48
2023-02-16T23:06:28.708Z,4.95
2023-02-16T23:09:01.195Z,10.70
2023-02-16T23:11:29.679Z,6.85
2023-02-16T23:13:57.342Z,10.65
2023-02-16T23:16:26.299Z,10.15
2023-02-16T23:18:56.351Z,7.43
2023-02-16T23:21:27.492Z,11.55
2023-02-16T23:23:55.607Z,7.88
2023-02-16T23:26:25.352Z,8.38
2023-02-16T23:28:56.292Z,7.60
2023-02-16T23:31:23.894Z,7.85
2023-02-16T23:33:52.027Z,11.13
2023-02-16T23:36:19.362Z,8.73
2023-02-16T23:38:46.717Z,11.20
2023-02-16T23:41:15.057Z,7.72
2023-02-16T23:43:42.848Z,5.25
2023-02-16T23:46:10.916Z,11.73
2023-02-16T23:48:38.613Z,9.40
2023-02-16T23:51:06.334Z,8.57
2023-02-16T23:53:33.997Z,7.60
2023-02-16T23:56:07.490Z,10.50
2023-02-16T23:58:37.701Z,8.70
